createdAt,value
2024-01-11T00:00:11.826Z,72.44
2024-01-11T00:01:13.816Z,73.02
2024-01-11T00:02:16.811Z,72.11
2024-01-11T00:03:19.585Z,72.15
2024-01-11T00:04:22.567Z,72.24
2024-01-11T00:05:24.698Z,72.43
2024-01-11T00:06:26.730Z,71.42
2024-01-11T00:07:29.682Z,71.58
2024-01-11T00:08:31.801Z,71.47
2024-01-11T00:09:34.703Z,71.28
2024-01-11T00:10:36.846Z,71.36
2024-01-11T00:11:40.220Z,71.64
2024-01-11T00:12:43.227Z,72.32
2024-01-11T00:13:45.187Z,72.07
2024-01-11T00:14:48.097Z,72.53
2024-01-11T00:15:50.013Z,71.80
2024-01-11T00:16:53.475Z,72.80
2024-01-11T00:17:56.005Z,71.87
2024-01-11T00:18:59.040Z,72.71
2024-01-11T00:20:01.682Z,72.28
2024-01-11T00:21:04.788Z,72.50
2024-01-11T00:22:07.192Z,72.52
2024-01-11T00:23:10.119Z,71.88
2024-01-11T00:24:12.076Z,72.86
2024-01-11T00:25:14.949Z,72.17
2024-01-11T00:26:17.086Z,72.28
2024-01-11T00:27:21.725Z,72.84
2024-01-11T00:28:23.591Z,73.09
2024-01-11T00:29:26.533Z,72.20
2024-01-11T00:30:28.495Z,72.96
2024-01-11T00:31:30.386Z,72.11
2024-01-11T00:32:33.336Z,72.75
2024-01-11T00:33:35.323Z,71.61
2024-01-11T00:34:38.278Z,71.41
2024-01-11T00:35:40.364Z,71.79
2024-01-11T00:36:43.268Z,71.73
2024-01-11T00:37:45.195Z,71.26
2024-01-11T00:38:48.078Z,71.92
2024-01-11T00:39:49.947Z,71.69
2024-01-11T00:40:52.869Z,72.45
2024-01-11T00:41:54.832Z,71.97
2024-01-11T00:42:59.030Z,71.79
2024-01-11T00:44:00.923Z,72.81
2024-01-11T00:45:03.819Z,71.87
2024-01-11T00:46:05.824Z,72.64
2024-01-11T00:47:09.032Z,71.86
2024-01-11T00:48:11.195Z,72.24
2024-01-11T00:49:13.237Z,71.87
2024-01-11T00:50:16.325Z,72.37
2024-01-11T00:51:18.272Z,71.67
2024-01-11T00:52:21.386Z,72.31
2024-01-11T00:53:23.278Z,72.22
2024-01-11T00:54:26.298Z,72.12
2024-01-11T00:55:28.168Z,72.29
2024-01-11T00:56:31.083Z,72.12
2024-01-11T00:57:33.079Z,72.18
2024-01-11T00:58:37.291Z,71.56
2024-01-11T00:59:41.035Z,71.61
2024-01-11T01:00:43.987Z,71.73
2024-01-11T01:01:48.756Z,71.94
2024-01-11T01:02:52.000Z,71.81
2024-01-11T01:03:53.971Z,72.00
2024-01-11T01:04:56.852Z,72.27
2024-01-11T01:05:58.882Z,71.65
2024-01-11T01:07:01.808Z,72.42
2024-01-11T01:08:04.212Z,72.07
2024-01-11T01:09:07.164Z,72.56
2024-01-11T01:10:09.588Z,72.15
2024-01-11T01:11:12.497Z,72.74
2024-01-11T01:12:14.419Z,72.78
2024-01-11T01:13:17.362Z,72.16
2024-01-11T01:14:20.618Z,71.92
2024-01-11T01:15:23.541Z,72.29
2024-01-11T01:16:25.501Z,71.94
2024-01-11T01:17:28.536Z,71.92
2024-01-11T01:18:30.574Z,72.57
2024-01-11T01:19:34.423Z,72.76
2024-01-11T01:20:36.407Z,72.47
2024-01-11T01:21:39.305Z,72.04
2024-01-11T01:22:41.233Z,72.07
2024-01-11T01:23:44.162Z,72.42
2024-01-11T01:24:46.060Z,72.74
2024-01-11T01:25:49.002Z,72.47
2024-01-11T01:26:50.911Z,72.56
2024-01-11T01:27:52.809Z,72.34
2024-01-11T01:28:55.774Z,72.06
2024-01-11T01:29:59.023Z,71.91
2024-01-11T01:31:02.011Z,72.36
2024-01-11T01:32:04.662Z,72.53
2024-01-11T01:33:07.791Z,72.23
2024-01-11T01:34:09.998Z,72.43
2024-01-11T01:35:12.966Z,72.41
2024-01-11T01:36:14.928Z,73.04
2024-01-11T01:37:17.826Z,72.99
2024-01-11T01:38:19.797Z,73.09
2024-01-11T01:39:22.702Z,73.06
2024-01-11T01:40:24.623Z,72.44
2024-01-11T01:41:27.522Z,72.16
2024-01-11T01:42:29.416Z,72.11
2024-01-11T01:43:32.283Z,71.91
2024-01-11T01:44:34.441Z,72.68
2024-01-11T01:45:38.743Z,72.75
2024-01-11T01:46:40.865Z,72.25
2024-01-11T01:47:44.714Z,72.13
2024-01-11T01:48:46.831Z,72.26
2024-01-11T01:49:51.176Z,72.70
2024-01-11T01:50:53.332Z,72.40
2024-01-11T01:51:56.882Z,71.82
2024-01-11T01:52:59.082Z,72.14
2024-01-11T01:54:02.477Z,71.81
2024-01-11T01:55:05.707Z,71.97
2024-01-11T01:56:09.323Z,72.56
2024-01-11T01:57:11.735Z,72.11
2024-01-11T01:58:15.049Z,72.36
2024-01-11T01:59:17.184Z,71.61
2024-01-11T02:00:20.341Z,72.16
2024-01-11T02:01:24.437Z,72.08
2024-01-11T02:02:27.841Z,72.16
2024-01-11T02:03:31.107Z,72.47
2024-01-11T02:04:34.223Z,71.75
2024-01-11T02:05:36.440Z,71.78
2024-01-11T02:06:39.906Z,71.96
2024-01-11T02:07:42.070Z,72.14
2024-01-11T02:08:45.139Z,72.08
2024-01-11T02:09:47.915Z,71.90
2024-01-11T02:10:50.915Z,71.47
2024-01-11T02:11:53.481Z,71.57
2024-01-11T02:12:56.353Z,71.89
2024-01-11T02:13:58.680Z,72.00
2024-01-11T02:15:02.257Z,71.82
2024-01-11T02:16:05.092Z,72.49
2024-01-11T02:17:09.927Z,72.53
2024-01-11T02:18:11.935Z,72.60
2024-01-11T02:19:15.968Z,72.23
2024-01-11T02:20:17.996Z,72.22
2024-01-11T02:21:20.932Z,72.19
2024-01-11T02:22:26.022Z,72.07
2024-01-11T02:23:29.281Z,72.52
2024-01-11T02:24:32.672Z,72.48
2024-01-11T02:25:38.558Z,72.67
2024-01-11T02:26:58.837Z,72.82
2024-01-11T02:28:01.724Z,73.06
2024-01-11T02:29:03.741Z,73.00
2024-01-11T02:30:07.772Z,72.71
2024-01-11T02:31:09.677Z,72.61
2024-01-11T02:32:13.233Z,72.59
2024-01-11T02:33:17.413Z,72.60
2024-01-11T02:34:20.719Z,72.37
2024-01-11T02:35:22.926Z,71.89
2024-01-11T02:36:27.426Z,72.18
2024-01-11T02:37:29.353Z,71.96
2024-01-11T02:38:32.337Z,72.43
2024-01-11T02:39:35.690Z,72.58
2024-01-11T02:40:39.856Z,71.81
2024-01-11T02:41:42.255Z,71.79
2024-01-11T02:42:45.148Z,71.50
2024-01-11T02:43:48.383Z,72.05
2024-01-11T02:44:51.296Z,72.07
2024-01-11T02:45:55.642Z,71.82
2024-01-11T02:46:57.556Z,72.16
2024-01-11T02:48:00.936Z,71.77
2024-01-11T02:49:03.083Z,72.21
2024-01-11T02:50:06.270Z,72.15
2024-01-11T02:51:08.225Z,72.14
2024-01-11T02:52:11.092Z,72.04
2024-01-11T02:53:13.182Z,71.98
2024-01-11T02:54:16.146Z,72.17
2024-01-11T02:55:19.437Z,72.33
2024-01-11T02:56:22.341Z,72.30
2024-01-11T02:57:24.303Z,72.47
2024-01-11T02:58:27.220Z,72.71
2024-01-11T02:59:29.597Z,72.79
2024-01-11T03:00:32.639Z,72.59
2024-01-11T03:01:34.594Z,73.13
2024-01-11T03:02:39.780Z,72.44
2024-01-11T03:03:41.927Z,72.78
2024-01-11T03:04:44.818Z,72.67
2024-01-11T03:05:46.864Z,72.51
2024-01-11T03:06:49.917Z,72.35
2024-01-11T03:07:52.059Z,72.27
2024-01-11T03:08:54.952Z,72.18
2024-01-11T03:09:57.225Z,71.82
2024-01-11T03:11:01.461Z,72.52
2024-01-11T03:12:03.907Z,72.22
2024-01-11T03:13:07.552Z,72.23
2024-01-11T03:14:09.522Z,72.36
2024-01-11T03:15:12.431Z,72.00
2024-01-11T03:16:14.651Z,72.04
2024-01-11T03:17:17.543Z,72.07
2024-01-11T03:18:19.592Z,71.83
2024-01-11T03:19:21.902Z,71.87
2024-01-11T03:20:26.005Z,72.12
2024-01-11T03:21:27.994Z,72.39
2024-01-11T03:22:30.874Z,72.17
2024-01-11T03:23:32.853Z,72.54
2024-01-11T03:24:38.746Z,72.46
2024-01-11T03:25:41.700Z,72.93
2024-01-11T03:26:45.037Z,72.40
2024-01-11T03:27:48.078Z,72.38
2024-01-11T03:28:50.381Z,72.39
2024-01-11T03:29:53.282Z,72.36
2024-01-11T03:30:55.569Z,72.74
2024-01-11T03:31:58.573Z,72.48
2024-01-11T03:33:00.753Z,72.57
2024-01-11T03:34:03.833Z,72.85
2024-01-11T03:35:06.972Z,72.43
2024-01-11T03:36:10.928Z,72.21
2024-01-11T03:37:12.873Z,72.43
2024-01-11T03:38:15.867Z,72.80
2024-01-11T03:39:17.785Z,72.92
2024-01-11T03:40:20.820Z,72.70
2024-01-11T03:41:22.815Z,72.45
2024-01-11T03:42:27.040Z,72.96
2024-01-11T03:43:28.975Z,72.59
2024-01-11T03:44:33.220Z,72.12
2024-01-11T03:45:35.148Z,72.08
2024-01-11T03:46:37.996Z,71.88
2024-01-11T03:47:39.946Z,72.11
2024-01-11T03:48:42.968Z,72.47
2024-01-11T03:49:44.888Z,72.46
2024-01-11T03:50:47.866Z,72.60
2024-01-11T03:51:49.763Z,72.94
2024-01-11T03:52:52.591Z,72.69
2024-01-11T03:53:54.726Z,72.97
2024-01-11T03:54:57.638Z,72.43
2024-01-11T03:56:01.167Z,72.49
2024-01-11T03:57:04.301Z,72.36
2024-01-11T03:58:07.555Z,72.65
2024-01-11T03:59:10.420Z,72.07
2024-01-11T04:00:13.364Z,72.56
2024-01-11T04:01:16.358Z,72.04
2024-01-11T04:02:18.421Z,72.13
2024-01-11T04:03:21.378Z,72.21
2024-01-11T04:04:23.350Z,72.17
2024-01-11T04:05:26.278Z,72.39
2024-01-11T04:06:28.332Z,72.21
2024-01-11T04:07:31.212Z,72.30
2024-01-11T04:08:33.162Z,72.06
2024-01-11T04:09:35.217Z,72.23
2024-01-11T04:10:38.321Z,72.13
2024-01-11T04:11:40.315Z,72.22
2024-01-11T04:12:43.249Z,71.97
2024-01-11T04:13:46.564Z,71.94
2024-01-11T04:14:49.456Z,72.00
2024-01-11T04:15:51.363Z,71.98
2024-01-11T04:16:54.296Z,72.04
2024-01-11T04:17:56.402Z,71.70
2024-01-11T04:18:58.450Z,71.54
2024-01-11T04:20:01.378Z,71.57
2024-01-11T04:21:03.487Z,71.82
2024-01-11T04:22:05.577Z,71.79
2024-01-11T04:23:08.453Z,72.48
2024-01-11T04:24:10.536Z,72.28
2024-01-11T04:25:13.422Z,72.59
2024-01-11T04:26:15.444Z,72.82
2024-01-11T04:27:18.415Z,72.61
2024-01-11T04:28:20.497Z,72.20
2024-01-11T04:29:23.766Z,72.21
2024-01-11T04:30:26.657Z,72.13
2024-01-11T04:31:28.736Z,72.02
2024-01-11T04:32:31.728Z,71.89
2024-01-11T04:33:33.713Z,72.06
2024-01-11T04:34:36.744Z,71.98
2024-01-11T04:35:38.852Z,72.18
2024-01-11T04:36:41.849Z,71.90
2024-01-11T04:37:43.772Z,72.16
2024-01-11T04:38:46.831Z,72.40
2024-01-11T04:39:48.940Z,72.54
2024-01-11T04:40:51.883Z,72.55
2024-01-11T04:41:53.763Z,72.67
2024-01-11T04:42:56.629Z,72.46
2024-01-11T04:43:58.542Z,72.52
2024-01-11T04:45:02.792Z,72.41
2024-01-11T04:46:05.082Z,72.28
2024-01-11T04:47:09.514Z,72.12
2024-01-11T04:48:11.637Z,72.15
2024-01-11T04:49:14.684Z,72.17
2024-01-11T04:50:20.112Z,72.16
2024-01-11T04:51:25.033Z,72.09
2024-01-11T04:52:26.886Z,71.53
2024-01-11T04:53:29.912Z,72.09
2024-01-11T04:54:31.829Z,72.27
2024-01-11T04:55:34.690Z,72.34
2024-01-11T04:56:36.630Z,72.22
2024-01-11T04:57:39.525Z,72.37
2024-01-11T04:58:42.867Z,72.33
2024-01-11T04:59:45.806Z,72.41
2024-01-11T05:00:49.871Z,72.74
2024-01-11T05:01:52.740Z,73.12
2024-01-11T05:02:54.742Z,72.78
2024-01-11T05:03:57.675Z,72.95
2024-01-11T05:04:59.674Z,73.49
2024-01-11T05:06:02.794Z,72.98
2024-01-11T05:07:05.075Z,72.79
2024-01-11T05:08:07.997Z,72.63
2024-01-11T05:09:09.966Z,72.33
2024-01-11T05:10:12.871Z,72.23
2024-01-11T05:11:18.517Z,71.96
2024-01-11T05:12:21.498Z,72.22
2024-01-11T05:13:23.423Z,72.25
2024-01-11T05:14:26.389Z,72.16
2024-01-11T05:15:28.334Z,72.07
2024-01-11T05:16:32.552Z,72.21
2024-01-11T05:17:34.632Z,72.17
2024-01-11T05:18:37.667Z,72.53
2024-01-11T05:19:39.825Z,72.63
2024-01-11T05:20:43.116Z,72.50
2024-01-11T05:21:45.219Z,72.57
2024-01-11T05:22:47.100Z,72.46
2024-01-11T05:23:50.437Z,72.51
2024-01-11T05:24:52.485Z,72.42
2024-01-11T05:25:55.396Z,72.33
2024-01-11T05:26:57.259Z,72.66
2024-01-11T05:28:00.129Z,72.57
2024-01-11T05:29:02.084Z,72.58
2024-01-11T05:30:04.653Z,72.58
2024-01-11T05:31:08.271Z,72.39
2024-01-11T05:32:11.820Z,72.63
2024-01-11T05:33:14.961Z,72.46
2024-01-11T05:34:17.073Z,72.40
2024-01-11T05:35:20.170Z,72.21
2024-01-11T05:36:22.846Z,72.31
2024-01-11T05:37:25.796Z,72.40
2024-01-11T05:38:27.709Z,72.32
2024-01-11T05:39:30.588Z,72.27
2024-01-11T05:40:32.508Z,72.26
2024-01-11T05:41:35.433Z,72.43
2024-01-11T05:42:38.407Z,72.50
2024-01-11T05:43:42.251Z,72.72
2024-01-11T05:44:45.020Z,72.79
2024-01-11T05:45:48.558Z,73.15
2024-01-11T05:46:51.544Z,73.07
2024-01-11T05:47:56.506Z,73.07
2024-01-11T05:48:58.553Z,73.01
2024-01-11T05:50:01.626Z,73.93
2024-01-11T05:51:03.741Z,73.96
2024-01-11T05:52:07.038Z,73.97
2024-01-11T05:53:09.005Z,73.54
2024-01-11T05:54:11.904Z,73.84
2024-01-11T05:55:14.014Z,73.22
2024-01-11T05:56:17.013Z,73.38
2024-01-11T05:57:18.939Z,73.08
2024-01-11T05:58:22.099Z,73.24
2024-01-11T05:59:24.075Z,72.71
2024-01-11T06:00:27.170Z,72.67
2024-01-11T06:01:29.205Z,72.73
2024-01-11T06:02:32.741Z,72.38
2024-01-11T06:03:36.385Z,72.57
2024-01-11T06:04:39.483Z,72.18
2024-01-11T06:05:41.546Z,72.21
2024-01-11T06:06:44.527Z,72.08
2024-01-11T06:07:46.403Z,71.92
2024-01-11T06:08:49.785Z,71.94
2024-01-11T06:09:51.713Z,72.23
2024-01-11T06:10:53.645Z,72.22
2024-01-11T06:11:56.575Z,72.16
2024-01-11T06:12:58.460Z,72.42
2024-01-11T06:14:01.681Z,72.43
2024-01-11T06:15:04.301Z,72.56
2024-01-11T06:16:06.482Z,72.86
2024-01-11T06:17:12.145Z,72.89
2024-01-11T06:18:14.245Z,72.89
2024-01-11T06:19:18.681Z,73.02
2024-01-11T06:20:20.990Z,72.83
2024-01-11T06:21:23.933Z,72.96
2024-01-11T06:22:25.882Z,72.98
2024-01-11T06:23:29.121Z,72.86
2024-01-11T06:24:31.087Z,72.39
2024-01-11T06:25:32.955Z,72.74
2024-01-11T06:26:35.876Z,72.73
2024-01-11T06:27:38.008Z,72.78
2024-01-11T06:28:40.918Z,73.21
2024-01-11T06:29:42.942Z,73.03
2024-01-11T06:30:46.021Z,72.84
2024-01-11T06:31:47.985Z,73.35
2024-01-11T06:32:50.988Z,72.94
2024-01-11T06:33:52.998Z,72.71
2024-01-11T06:34:57.292Z,72.58
2024-01-11T06:35:59.778Z,72.50
2024-01-11T06:37:03.838Z,73.02
2024-01-11T06:38:05.779Z,72.71
2024-01-11T06:39:09.683Z,72.96
2024-01-11T06:40:12.209Z,73.10
2024-01-11T06:41:15.899Z,73.31
2024-01-11T06:42:19.794Z,73.37
2024-01-11T06:43:22.868Z,73.30
2024-01-11T06:44:24.769Z,73.25
2024-01-11T06:45:27.913Z,73.90
2024-01-11T06:46:29.883Z,73.42
2024-01-11T06:47:32.942Z,73.95
2024-01-11T06:48:35.454Z,73.56
2024-01-11T06:49:40.615Z,73.57
2024-01-11T06:50:44.742Z,72.90
2024-01-11T06:51:47.649Z,73.18
2024-01-11T06:52:49.624Z,73.16
2024-01-11T06:53:52.585Z,73.59
2024-01-11T06:54:54.496Z,73.68
2024-01-11T06:55:57.416Z,72.62
2024-01-11T06:56:59.598Z,72.56
2024-01-11T06:58:03.340Z,72.74
2024-01-11T06:59:05.504Z,73.16
2024-01-11T07:00:09.754Z,73.26
2024-01-11T07:01:12.077Z,73.30
2024-01-11T07:02:14.981Z,73.39
2024-01-11T07:03:16.973Z,73.37
2024-01-11T07:04:18.947Z,72.99
2024-01-11T07:05:21.993Z,72.65
2024-01-11T07:06:25.392Z,72.74
2024-01-11T07:07:28.298Z,73.57
2024-01-11T07:08:30.237Z,74.07
2024-01-11T07:09:33.157Z,73.84
2024-01-11T07:10:35.032Z,74.20
2024-01-11T07:11:36.967Z,73.97
2024-01-11T07:12:41.740Z,74.49
2024-01-11T07:13:43.840Z,73.81
2024-01-11T07:14:46.839Z,73.94
2024-01-11T07:15:49.188Z,73.78
2024-01-11T07:16:52.057Z,74.13
2024-01-11T07:17:54.676Z,73.93
2024-01-11T07:18:58.192Z,74.16
2024-01-11T07:20:00.450Z,75.65
2024-01-11T07:21:03.402Z,76.22
2024-01-11T07:22:06.646Z,75.72
2024-01-11T07:23:09.667Z,74.70
2024-01-11T07:24:11.657Z,75.64
2024-01-11T07:25:15.389Z,75.47
2024-01-11T07:26:17.342Z,75.82
2024-01-11T07:27:20.373Z,76.06
2024-01-11T07:28:26.374Z,76.03
2024-01-11T07:29:29.283Z,75.42
2024-01-11T07:30:31.314Z,74.77
2024-01-11T07:31:34.212Z,74.42
2024-01-11T07:32:36.279Z,73.73
2024-01-11T07:33:39.415Z,74.22
2024-01-11T07:34:41.427Z,74.02
2024-01-11T07:35:44.390Z,74.58
2024-01-11T07:36:46.374Z,75.36
2024-01-11T07:37:51.084Z,75.33
2024-01-11T07:38:52.993Z,76.09
2024-01-11T07:39:55.867Z,75.86
2024-01-11T07:40:57.821Z,76.03
2024-01-11T07:42:00.729Z,76.70
2024-01-11T07:43:02.684Z,76.40
2024-01-11T07:44:05.881Z,77.38
2024-01-11T07:45:10.459Z,76.90
2024-01-11T07:46:12.408Z,76.94
2024-01-11T07:47:15.284Z,76.24
2024-01-11T07:48:17.358Z,76.51
2024-01-11T07:49:20.356Z,76.06
2024-01-11T07:50:22.533Z,77.02
2024-01-11T07:51:25.431Z,76.30
2024-01-11T07:52:27.330Z,76.80
2024-01-11T07:53:32.481Z,76.50
2024-01-11T07:54:34.451Z,76.66
2024-01-11T07:55:38.658Z,75.99
2024-01-11T07:56:41.678Z,77.28
2024-01-11T07:57:44.625Z,76.82
2024-01-11T07:58:48.942Z,77.42
2024-01-11T07:59:52.641Z,77.38
2024-01-11T08:00:55.455Z,77.09
2024-01-11T08:01:58.984Z,77.53
2024-01-11T08:03:01.101Z,76.91
2024-01-11T08:04:04.949Z,77.21
2024-01-11T08:05:07.977Z,76.84
2024-01-11T08:06:10.969Z,76.55
2024-01-11T08:07:13.090Z,76.56
2024-01-11T08:08:16.021Z,76.08
2024-01-11T08:09:19.343Z,75.86
2024-01-11T08:10:22.215Z,76.07
2024-01-11T08:11:24.108Z,76.34
2024-01-11T08:12:26.058Z,76.22
2024-01-11T08:13:29.548Z,76.00
2024-01-11T08:14:31.501Z,75.82
2024-01-11T08:15:35.344Z,75.59
2024-01-11T08:16:37.269Z,75.62
2024-01-11T08:17:41.974Z,75.78
2024-01-11T08:18:45.051Z,75.49
2024-01-11T08:19:47.995Z,75.53
2024-01-11T08:20:50.071Z,75.64
2024-01-11T08:21:53.019Z,75.51
2024-01-11T08:22:54.938Z,75.59
2024-01-11T08:24:01.487Z,75.31
2024-01-11T08:25:07.252Z,75.45
2024-01-11T08:26:10.128Z,75.38
2024-01-11T08:27:12.035Z,75.02
2024-01-11T08:28:14.963Z,75.78
2024-01-11T08:29:17.000Z,75.83
2024-01-11T08:30:20.493Z,76.63
2024-01-11T08:31:22.534Z,76.27
2024-01-11T08:32:31.307Z,76.46
2024-01-11T08:33:35.697Z,76.24
2024-01-11T08:34:37.889Z,76.75
2024-01-11T08:35:42.083Z,76.69
2024-01-11T08:36:44.139Z,76.68
2024-01-11T08:37:47.021Z,77.23
2024-01-11T08:38:49.308Z,77.06
2024-01-11T08:39:52.650Z,76.56
2024-01-11T08:40:55.920Z,76.97
2024-01-11T08:41:58.884Z,76.84
2024-01-11T08:43:00.846Z,76.62
2024-01-11T08:44:04.069Z,76.65
2024-01-11T08:45:08.197Z,76.76
2024-01-11T08:46:11.133Z,76.60
2024-01-11T08:47:13.211Z,76.46
2024-01-11T08:48:16.959Z,76.49
2024-01-11T08:49:19.150Z,76.17
2024-01-11T08:50:24.278Z,76.45
2024-01-11T08:51:27.540Z,76.08
2024-01-11T08:52:29.789Z,76.80
2024-01-11T08:53:32.719Z,76.24
2024-01-11T08:54:35.217Z,76.00
2024-01-11T08:55:38.083Z,75.97
2024-01-11T08:56:42.582Z,76.17
2024-01-11T08:57:45.494Z,76.34
2024-01-11T08:58:47.837Z,76.46
2024-01-11T08:59:50.768Z,76.39
2024-01-11T09:00:52.792Z,76.26
2024-01-11T09:02:02.432Z,76.74
2024-01-11T09:03:15.101Z,76.73
2024-01-11T09:04:18.720Z,76.23
2024-01-11T09:05:22.497Z,75.89
2024-01-11T09:06:24.594Z,75.22
2024-01-11T09:07:27.542Z,74.98
2024-01-11T09:08:29.498Z,74.96
2024-01-11T09:09:36.677Z,75.07
2024-01-11T09:10:43.154Z,75.57
2024-01-11T09:11:47.530Z,75.40
2024-01-11T09:12:49.433Z,75.41
2024-01-11T09:13:52.337Z,74.78
2024-01-11T09:14:54.596Z,74.61
2024-01-11T09:15:57.887Z,74.59
2024-01-11T09:16:59.791Z,74.51
2024-01-11T09:18:02.939Z,74.34
2024-01-11T09:19:05.037Z,74.15
2024-01-11T09:20:08.690Z,74.02
2024-01-11T09:21:10.790Z,73.24
2024-01-11T09:22:13.712Z,73.50
2024-01-11T09:23:15.694Z,73.86
2024-01-11T09:24:18.935Z,73.95
2024-01-11T09:25:20.827Z,73.64
2024-01-11T09:26:24.097Z,74.47
2024-01-11T09:27:27.360Z,73.94
2024-01-11T09:28:30.217Z,73.50
2024-01-11T09:29:32.174Z,74.23
2024-01-11T09:30:35.178Z,74.22
2024-01-11T09:31:37.123Z,73.80
2024-01-11T09:32:40.251Z,73.83
2024-01-11T09:33:43.890Z,73.85
2024-01-11T09:34:47.121Z,73.48
2024-01-11T09:35:49.155Z,73.93
2024-01-11T09:36:52.888Z,73.44
2024-01-11T09:37:54.777Z,73.82
2024-01-11T09:38:58.193Z,73.10
2024-01-11T09:40:01.860Z,73.53
2024-01-11T09:41:09.435Z,73.64
2024-01-11T09:42:13.962Z,73.21
2024-01-11T09:43:17.832Z,73.41
2024-01-11T09:44:21.570Z,72.86
2024-01-11T09:45:23.494Z,73.47
2024-01-11T09:46:26.930Z,73.33
2024-01-11T09:47:29.688Z,73.34
2024-01-11T09:48:33.471Z,72.78
2024-01-11T09:49:39.098Z,72.79
2024-01-11T09:50:42.551Z,73.04
2024-01-11T09:51:46.184Z,72.42
2024-01-11T09:52:50.075Z,72.45
2024-01-11T09:53:52.679Z,72.59
2024-01-11T09:54:56.154Z,72.37
2024-01-11T09:55:58.306Z,71.23
2024-01-11T09:57:00.773Z,71.85
2024-01-11T09:58:04.112Z,71.46
2024-01-11T09:59:08.725Z,71.33
2024-01-11T10:00:12.609Z,71.77
2024-01-11T10:01:15.094Z,70.79
2024-01-11T10:02:18.279Z,70.43
2024-01-11T10:03:20.736Z,70.46
2024-01-11T10:04:22.967Z,70.36
2024-01-11T10:05:26.130Z,69.58
2024-01-11T10:06:28.695Z,70.29
2024-01-11T10:07:32.802Z,69.83
2024-01-11T10:08:35.049Z,69.06
2024-01-11T10:09:37.991Z,69.41
2024-01-11T10:10:41.025Z,70.20
2024-01-11T10:11:43.650Z,69.83
2024-01-11T10:12:46.625Z,69.65
2024-01-11T10:13:48.646Z,69.63
2024-01-11T10:14:53.274Z,68.93
2024-01-11T10:16:06.264Z,68.91
2024-01-11T10:17:11.155Z,66.86
2024-01-11T10:18:14.609Z,67.19
2024-01-11T10:19:18.382Z,67.91
2024-01-11T10:20:25.016Z,68.44
2024-01-11T10:21:29.974Z,67.02
2024-01-11T10:22:31.932Z,67.92
2024-01-11T10:23:35.857Z,67.76
2024-01-11T10:24:37.994Z,67.94
2024-01-11T10:25:41.398Z,67.60
2024-01-11T10:26:44.740Z,65.74
2024-01-11T10:27:47.007Z,65.48
2024-01-11T10:28:50.064Z,66.74
2024-01-11T10:29:53.902Z,67.31
2024-01-11T10:30:56.645Z,67.32
2024-01-11T10:31:59.656Z,66.62
2024-01-11T10:33:02.124Z,66.56
2024-01-11T10:34:06.137Z,66.58
2024-01-11T10:35:08.892Z,66.45
2024-01-11T10:36:13.800Z,66.77
2024-01-11T10:37:15.981Z,65.69
2024-01-11T10:38:19.054Z,66.58
2024-01-11T10:39:26.162Z,65.51
2024-01-11T10:40:28.246Z,66.40
2024-01-11T10:41:31.882Z,66.45
2024-01-11T10:42:35.157Z,66.90
2024-01-11T10:43:39.372Z,66.67
2024-01-11T10:44:44.844Z,66.76
2024-01-11T10:45:54.877Z,66.83
2024-01-11T10:46:58.086Z,66.04
2024-01-11T10:48:05.710Z,66.12
2024-01-11T10:49:09.439Z,65.82
2024-01-11T10:50:12.682Z,65.59
2024-01-11T10:51:18.676Z,65.06
2024-01-11T10:52:24.958Z,65.73
2024-01-11T10:53:33.633Z,64.98
2024-01-11T10:54:36.845Z,65.02
2024-01-11T10:55:39.779Z,65.08
2024-01-11T10:56:44.967Z,65.76
2024-01-11T10:57:49.334Z,65.72
2024-01-11T10:58:53.390Z,65.33
2024-01-11T10:59:56.050Z,65.75
2024-01-11T11:01:00.592Z,65.79
2024-01-11T11:02:13.218Z,65.94
2024-01-11T11:03:16.589Z,65.53
2024-01-11T11:04:21.779Z,65.75
2024-01-11T11:05:25.732Z,65.83
2024-01-11T11:06:30.307Z,65.73
2024-01-11T11:07:33.359Z,64.95
2024-01-11T11:08:38.092Z,65.88
2024-01-11T11:09:44.904Z,65.80
2024-01-11T11:10:49.653Z,65.85
2024-01-11T11:11:52.045Z,64.90
2024-01-11T11:12:58.422Z,65.62
2024-01-11T11:14:02.222Z,65.09
2024-01-11T11:15:05.876Z,64.99
2024-01-11T11:16:09.391Z,65.84
2024-01-11T11:17:12.341Z,66.04
2024-01-11T11:18:14.653Z,66.27
2024-01-11T11:19:17.693Z,65.77
2024-01-11T11:20:19.888Z,64.57
2024-01-11T11:21:23.885Z,64.79
2024-01-11T11:22:28.176Z,65.39
2024-01-11T11:23:31.137Z,64.89
2024-01-11T11:24:35.089Z,65.28
2024-01-11T11:25:38.138Z,64.89
2024-01-11T11:26:40.093Z,64.85
2024-01-11T11:27:42.979Z,64.86
2024-01-11T11:28:45.150Z,64.96
2024-01-11T11:29:49.285Z,64.10
2024-01-11T11:30:53.254Z,63.57
2024-01-11T11:31:58.710Z,64.32
2024-01-11T11:33:09.503Z,64.21
2024-01-11T11:34:13.665Z,64.62
2024-01-11T11:35:15.684Z,65.04
2024-01-11T11:36:19.970Z,64.61
2024-01-11T11:37:24.349Z,64.59
2024-01-11T11:38:28.721Z,64.58
2024-01-11T11:39:30.700Z,64.20
2024-01-11T11:40:40.337Z,64.06
2024-01-11T11:41:43.785Z,63.79
2024-01-11T11:42:48.136Z,63.36
2024-01-11T11:43:50.105Z,63.42
2024-01-11T11:44:53.746Z,64.15
2024-01-11T11:45:55.913Z,64.46
2024-01-11T11:47:20.377Z,64.15
2024-01-11T11:48:52.419Z,63.59
2024-01-11T11:50:00.545Z,64.20
2024-01-11T11:51:03.280Z,64.69
2024-01-11T11:52:06.761Z,63.81
2024-01-11T11:53:11.647Z,64.39
2024-01-11T11:54:16.125Z,63.23
2024-01-11T11:55:18.410Z,63.58
2024-01-11T11:56:21.635Z,62.88
2024-01-11T11:57:25.263Z,62.24
2024-01-11T11:58:27.219Z,62.57
2024-01-11T11:59:30.864Z,63.48
2024-01-11T12:00:34.974Z,63.69
2024-01-11T12:01:37.921Z,64.27
2024-01-11T12:02:41.902Z,63.88
2024-01-11T12:03:50.012Z,63.87
2024-01-11T12:04:52.099Z,62.62
2024-01-11T12:05:55.712Z,62.87
2024-01-11T12:06:57.928Z,63.59
2024-01-11T12:07:59.913Z,63.99
2024-01-11T12:09:02.807Z,63.22
2024-01-11T12:10:05.922Z,62.53
2024-01-11T12:11:07.923Z,62.97
2024-01-11T12:12:15.723Z,63.53
2024-01-11T12:13:18.776Z,63.52
2024-01-11T12:14:22.605Z,64.30
2024-01-11T12:15:28.023Z,63.94
2024-01-11T12:16:31.050Z,64.10
2024-01-11T12:17:33.177Z,63.23
2024-01-11T12:18:37.609Z,63.56
2024-01-11T12:19:39.647Z,63.76
2024-01-11T12:20:42.628Z,62.96
2024-01-11T12:21:45.506Z,63.72
2024-01-11T12:22:49.029Z,63.56
2024-01-11T12:23:51.079Z,63.14
2024-01-11T12:24:54.473Z,63.87
2024-01-11T12:25:56.569Z,64.61
2024-01-11T12:26:59.957Z,64.04
2024-01-11T12:28:02.048Z,64.53
2024-01-11T12:29:05.262Z,64.46
2024-01-11T12:30:08.987Z,64.79
2024-01-11T12:31:13.057Z,64.65
2024-01-11T12:32:17.390Z,64.47
2024-01-11T12:33:20.784Z,64.65
2024-01-11T12:34:24.690Z,63.67
2024-01-11T12:35:28.889Z,64.30
2024-01-11T12:36:31.237Z,64.50
2024-01-11T12:37:34.156Z,64.09
2024-01-11T12:38:36.381Z,64.48
2024-01-11T12:39:40.188Z,63.75
2024-01-11T12:40:42.189Z,64.40
2024-01-11T12:41:45.259Z,64.52
2024-01-11T12:42:47.294Z,64.56
2024-01-11T12:43:50.193Z,64.91
2024-01-11T12:44:54.307Z,64.67
2024-01-11T12:45:58.423Z,65.19
2024-01-11T12:47:00.346Z,65.15
2024-01-11T12:48:05.071Z,64.76
2024-01-11T12:49:11.077Z,65.05
2024-01-11T12:50:15.487Z,64.83
2024-01-11T12:51:21.490Z,64.87
2024-01-11T12:52:28.492Z,64.94
2024-01-11T12:53:30.715Z,64.91
2024-01-11T12:54:34.619Z,64.46
2024-01-11T12:55:47.521Z,65.06
2024-01-11T12:56:55.757Z,65.13
2024-01-11T12:58:05.054Z,65.10
2024-01-11T12:59:09.702Z,65.57
2024-01-11T13:00:12.747Z,65.44
2024-01-11T13:01:16.395Z,64.92
2024-01-11T13:02:20.496Z,65.03
2024-01-11T13:03:24.251Z,65.07
2024-01-11T13:04:26.510Z,65.23
2024-01-11T13:05:30.974Z,65.48
2024-01-11T13:06:33.074Z,65.73
2024-01-11T13:07:36.122Z,65.86
2024-01-11T13:08:40.760Z,65.94
2024-01-11T13:09:43.666Z,65.80
2024-01-11T13:10:45.654Z,65.88
2024-01-11T13:11:48.566Z,65.81
2024-01-11T13:12:56.738Z,65.97
2024-01-11T13:14:07.682Z,65.81
2024-01-11T13:15:10.043Z,66.02
2024-01-11T13:16:15.682Z,65.79
2024-01-11T13:17:17.749Z,66.36
2024-01-11T13:18:20.663Z,66.63
2024-01-11T13:19:27.124Z,66.96
2024-01-11T13:20:32.437Z,66.36
2024-01-11T13:21:34.678Z,66.76
2024-01-11T13:22:37.554Z,66.82
2024-01-11T13:23:40.814Z,66.57
2024-01-11T13:24:43.721Z,66.82
2024-01-11T13:25:46.689Z,66.80
2024-01-11T13:26:50.062Z,66.79
2024-01-11T13:27:54.309Z,66.84
2024-01-11T13:28:57.221Z,66.76
2024-01-11T13:29:59.386Z,66.76
2024-01-11T13:31:03.488Z,67.05
2024-01-11T13:32:06.127Z,67.06
2024-01-11T13:33:10.061Z,67.25
2024-01-11T13:34:12.108Z,67.34